sensor_id;sensor_type;location;lat;lon;timestamp;P1;durP1;ratioP1;P2;durP2;ratioP2
39738;SDS011;25422;48.286;8.484;2023-06-10T00:01:23;7.38;;;6.22;;
39738;SDS011;25422;48.286;8.484;2023-06-10T00:03:52;8.52;;;6.05;;
39738;SDS011;25422;48.286;8.484;2023-06-10T00:06:18;6.53;;;5.57;;
39738;SDS011;25422;48.286;8.484;2023-06-10T00:08:43;7.13;;;6.43;;
39738;SDS011;25422;48.286;8.484;2023-06-10T00:11:08;8.43;;;6.30;;
39738;SDS011;25422;48.286;8.484;2023-06-10T00:13:34;8.05;;;6.70;;
39738;SDS011;25422;48.286;8.484;2023-06-10T00:15:59;6.85;;;6.15;;
39738;SDS011;25422;48.286;8.484;2023-06-10T00:18:25;8.00;;;6.07;;
39738;SDS011;25422;48.286;8.484;2023-06-10T00:20:52;7.47;;;6.63;;
39738;SDS011;25422;48.286;8.484;2023-06-10T00:23:20;8.32;;;6.82;;
39738;SDS011;25422;48.286;8.484;2023-06-10T00:25:46;7.15;;;6.40;;
39738;SDS011;25422;48.286;8.484;2023-06-10T00:28:12;12.65;;;6.75;;
39738;SDS011;25422;48.286;8.484;2023-06-10T00:30:38;8.13;;;6.63;;
39738;SDS011;25422;48.286;8.484;2023-06-10T00:33:03;7.68;;;6.78;;
39738;SDS011;25422;48.286;8.484;2023-06-10T00:35:29;8.88;;;8.00;;
39738;SDS011;25422;48.286;8.484;2023-06-10T00:37:55;7.63;;;6.90;;
39738;SDS011;25422;48.286;8.484;2023-06-10T00:40:20;7.85;;;6.80;;
39738;SDS011;25422;48.286;8.484;2023-06-10T00:42:45;9.10;;;6.40;;
39738;SDS011;25422;48.286;8.484;2023-06-10T00:45:11;8.00;;;7.20;;
39738;SDS011;25422;48.286;8.484;2023-06-10T00:47:36;10.43;;;6.90;;
39738;SDS011;25422;48.286;8.484;2023-06-10T00:50:02;9.13;;;6.50;;
39738;SDS011;25422;48.286;8.484;2023-06-10T00:52:28;9.00;;;7.32;;
39738;SDS011;25422;48.286;8.484;2023-06-10T00:54:55;8.63;;;6.97;;
39738;SDS011;25422;48.286;8.484;2023-06-10T00:57:20;8.38;;;7.53;;
39738;SDS011;25422;48.286;8.484;2023-06-10T00:59:47;7.95;;;7.15;;
39738;SDS011;25422;48.286;8.484;2023-06-10T01:02:14;8.75;;;7.85;;
39738;SDS011;25422;48.286;8.484;2023-06-10T01:04:40;8.27;;;7.47;;
39738;SDS011;25422;48.286;8.484;2023-06-10T01:07:10;8.95;;;6.93;;
39738;SDS011;25422;48.286;8.484;2023-06-10T01:10:01;11.88;;;8.32;;
39738;SDS011;25422;48.286;8.484;2023-06-10T01:12:43;9.40;;;8.05;;
39738;SDS011;25422;48.286;8.484;2023-06-10T01:15:14;12.95;;;8.48;;
39738;SDS011;25422;48.286;8.484;2023-06-10T01:17:57;8.73;;;7.88;;
39738;SDS011;25422;48.286;8.484;2023-06-10T01:20:24;9.63;;;8.57;;
39738;SDS011;25422;48.286;8.484;2023-06-10T01:22:52;10.45;;;8.93;;
39738;SDS011;25422;48.286;8.484;2023-06-10T01:25:20;11.65;;;9.57;;
39738;SDS011;25422;48.286;8.484;2023-06-10T01:27:53;8.25;;;7.45;;
39738;SDS011;25422;48.286;8.484;2023-06-10T01:30:32;7.93;;;7.10;;
39738;SDS011;25422;48.286;8.484;2023-06-10T01:33:09;9.55;;;8.52;;
39738;SDS011;25422;48.286;8.484;2023-06-10T01:35:37;9.85;;;8.75;;
39738;SDS011;25422;48.286;8.484;2023-06-10T01:38:04;10.13;;;9.13;;
39738;SDS011;25422;48.286;8.484;2023-06-10T01:40:31;11.30;;;8.52;;
39738;SDS011;25422;48.286;8.484;2023-06-10T01:42:57;10.82;;;7.38;;
39738;SDS011;25422;48.286;8.484;2023-06-10T01:45:23;8.77;;;7.88;;
39738;SDS011;25422;48.286;8.484;2023-06-10T01:47:48;10.07;;;8.40;;
39738;SDS011;25422;48.286;8.484;2023-06-10T01:50:14;9.50;;;8.60;;
39738;SDS011;25422;48.286;8.484;2023-06-10T01:52:41;10.80;;;8.38;;
39738;SDS011;25422;48.286;8.484;2023-06-10T01:55:07;9.38;;;8.38;;
39738;SDS011;25422;48.286;8.484;2023-06-10T01:57:32;9.32;;;8.15;;
39738;SDS011;25422;48.286;8.484;2023-06-10T01:59:58;10.70;;;8.40;;
39738;SDS011;25422;48.286;8.484;2023-06-10T02:02:23;8.85;;;7.95;;
39738;SDS011;25422;48.286;8.484;2023-06-10T02:04:49;9.02;;;8.13;;
39738;SDS011;25422;48.286;8.484;2023-06-10T02:07:15;8.85;;;7.95;;
39738;SDS011;25422;48.286;8.484;2023-06-10T02:09:41;9.32;;;8.38;;
39738;SDS011;25422;48.286;8.484;2023-06-10T02:12:06;10.07;;;9.07;;
39738;SDS011;25422;48.286;8.484;2023-06-10T02:14:33;10.60;;;8.52;;
39738;SDS011;25422;48.286;8.484;2023-06-10T02:16:58;10.30;;;9.20;;
39738;SDS011;25422;48.286;8.484;2023-06-10T02:19:23;9.43;;;8.52;;
39738;SDS011;25422;48.286;8.484;2023-06-10T02:21:51;10.07;;;8.45;;
39738;SDS011;25422;48.286;8.484;2023-06-10T02:24:17;9.25;;;8.35;;
39738;SDS011;25422;48.286;8.484;2023-06-10T02:26:43;11.82;;;8.80;;
39738;SDS011;25422;48.286;8.484;2023-06-10T02:29:08;10.15;;;8.77;;
39738;SDS011;25422;48.286;8.484;2023-06-10T02:31:34;10.88;;;8.57;;
39738;SDS011;25422;48.286;8.484;2023-06-10T02:34:01;9.88;;;8.65;;
39738;SDS011;25422;48.286;8.484;2023-06-10T02:36:28;11.70;;;8.93;;
39738;SDS011;25422;48.286;8.484;2023-06-10T02:38:55;11.40;;;8.77;;
39738;SDS011;25422;48.286;8.484;2023-06-10T02:41:21;10.18;;;8.32;;
39738;SDS011;25422;48.286;8.484;2023-06-10T02:43:47;10.32;;;9.40;;
39738;SDS011;25422;48.286;8.484;2023-06-10T02:46:13;10.23;;;8.98;;
39738;SDS011;25422;48.286;8.484;2023-06-10T02:48:41;10.88;;;9.85;;
39738;SDS011;25422;48.286;8.484;2023-06-10T02:51:09;12.18;;;9.63;;
39738;SDS011;25422;48.286;8.484;2023-06-10T02:53:39;14.05;;;9.77;;
39738;SDS011;25422;48.286;8.484;2023-06-10T02:56:09;12.40;;;11.10;;
39738;SDS011;25422;48.286;8.484;2023-06-10T02:58:38;10.55;;;9.55;;
39738;SDS011;25422;48.286;8.484;2023-06-10T03:01:09;11.68;;;10.48;;
39738;SDS011;25422;48.286;8.484;2023-06-10T03:03:46;12.20;;;10.50;;
39738;SDS011;25422;48.286;8.484;2023-06-10T03:06:18;10.32;;;9.27;;
39738;SDS011;25422;48.286;8.484;2023-06-10T03:08:46;10.02;;;9.00;;
39738;SDS011;25422;48.286;8.484;2023-06-10T03:11:17;10.95;;;9.85;;
39738;SDS011;25422;48.286;8.484;2023-06-10T03:13:46;10.57;;;9.57;;
39738;SDS011;25422;48.286;8.484;2023-06-10T03:16:16;12.98;;;9.90;;
39738;SDS011;25422;48.286;8.484;2023-06-10T03:18:43;11.55;;;10.40;;
39738;SDS011;25422;48.286;8.484;2023-06-10T03:21:08;11.18;;;9.98;;
39738;SDS011;25422;48.286;8.484;2023-06-10T03:23:35;12.02;;;9.75;;
39738;SDS011;25422;48.286;8.484;2023-06-10T03:26:04;10.65;;;9.63;;
39738;SDS011;25422;48.286;8.484;2023-06-10T03:28:42;10.18;;;9.07;;
39738;SDS011;25422;48.286;8.484;2023-06-10T03:31:08;11.77;;;10.50;;
39738;SDS011;25422;48.286;8.484;2023-06-10T03:33:42;12.95;;;10.85;;
39738;SDS011;25422;48.286;8.484;2023-06-10T03:36:12;10.52;;;9.52;;
39738;SDS011;25422;48.286;8.484;2023-06-10T03:38:39;11.60;;;10.30;;
39738;SDS011;25422;48.286;8.484;2023-06-10T03:41:10;11.13;;;9.95;;
39738;SDS011;25422;48.286;8.484;2023-06-10T03:43:40;13.48;;;11.05;;
39738;SDS011;25422;48.286;8.484;2023-06-10T03:46:09;12.05;;;10.63;;
39738;SDS011;25422;48.286;8.484;2023-06-10T03:48:42;12.00;;;10.80;;
39738;SDS011;25422;48.286;8.484;2023-06-10T03:51:09;11.85;;;10.48;;
39738;SDS011;25422;48.286;8.484;2023-06-10T03:53:36;12.35;;;11.07;;
39738;SDS011;25422;48.286;8.484;2023-06-10T03:56:02;12.75;;;11.27;;
39738;SDS011;25422;48.286;8.484;2023-06-10T03:58:38;13.60;;;11.70;;
39738;SDS011;25422;48.286;8.484;2023-06-10T04:01:08;13.63;;;12.02;;
39738;SDS011;25422;48.286;8.484;2023-06-10T04:03:59;12.90;;;11.65;;
39738;SDS011;25422;48.286;8.484;2023-06-10T04:06:24;11.85;;;10.65;;
39738;SDS011;25422;48.286;8.484;2023-06-10T04:08:54;13.75;;;10.95;;
39738;SDS011;25422;48.286;8.484;2023-06-10T04:11:24;13.98;;;11.43;;
39738;SDS011;25422;48.286;8.484;2023-06-10T04:13:51;14.70;;;10.85;;
39738;SDS011;25422;48.286;8.484;2023-06-10T04:16:17;11.68;;;10.48;;
39738;SDS011;25422;48.286;8.484;2023-06-10T04:18:46;13.57;;;11.05;;
39738;SDS011;25422;48.286;8.484;2023-06-10T04:21:13;12.05;;;10.85;;
39738;SDS011;25422;48.286;8.484;2023-06-10T04:23:41;15.57;;;12.55;;
39738;SDS011;25422;48.286;8.484;2023-06-10T04:26:09;11.55;;;10.43;;
39738;SDS011;25422;48.286;8.484;2023-06-10T04:28:40;12.02;;;10.45;;
39738;SDS011;25422;48.286;8.484;2023-06-10T04:31:06;10.88;;;9.77;;
39738;SDS011;25422;48.286;8.484;2023-06-10T04:33:34;11.80;;;9.80;;
39738;SDS011;25422;48.286;8.484;2023-06-10T04:36:04;14.93;;;10.18;;
39738;SDS011;25422;48.286;8.484;2023-06-10T04:38:33;11.65;;;10.05;;
39738;SDS011;25422;48.286;8.484;2023-06-10T04:40:59;11.05;;;9.95;;
39738;SDS011;25422;48.286;8.484;2023-06-10T04:43:28;12.40;;;9.57;;
39738;SDS011;25422;48.286;8.484;2023-06-10T04:45:55;10.93;;;8.48;;
39738;SDS011;25422;48.286;8.484;2023-06-10T04:48:21;10.27;;;8.73;;
39738;SDS011;25422;48.286;8.484;2023-06-10T04:50:46;10.32;;;9.32;;
39738;SDS011;25422;48.286;8.484;2023-06-10T04:53:12;9.88;;;8.30;;
39738;SDS011;25422;48.286;8.484;2023-06-10T04:55:40;10.57;;;7.90;;
39738;SDS011;25422;48.286;8.484;2023-06-10T04:58:05;9.60;;;8.63;;
39738;SDS011;25422;48.286;8.484;2023-06-10T05:00:31;9.75;;;7.82;;
39738;SDS011;25422;48.286;8.484;2023-06-10T05:02:56;9.90;;;8.40;;
39738;SDS011;25422;48.286;8.484;2023-06-10T05:05:21;9.05;;;8.10;;
39738;SDS011;25422;48.286;8.484;2023-06-10T05:07:47;8.63;;;7.72;;
39738;SDS011;25422;48.286;8.484;2023-06-10T05:10:13;8.43;;;7.50;;
39738;SDS011;25422;48.286;8.484;2023-06-10T05:12:38;8.88;;;7.40;;
39738;SDS011;25422;48.286;8.484;2023-06-10T05:15:05;11.05;;;7.65;;
39738;SDS011;25422;48.286;8.484;2023-06-10T05:17:31;10.93;;;7.78;;
39738;SDS011;25422;48.286;8.484;2023-06-10T05:19:57;8.82;;;7.07;;
39738;SDS011;25422;48.286;8.484;2023-06-10T05:22:22;8.90;;;7.28;;
39738;SDS011;25422;48.286;8.484;2023-06-10T05:24:50;9.07;;;6.80;;
39738;SDS011;25422;48.286;8.484;2023-06-10T05:27:16;8.82;;;7.18;;
39738;SDS011;25422;48.286;8.484;2023-06-10T05:29:42;9.82;;;7.18;;
39738;SDS011;25422;48.286;8.484;2023-06-10T05:32:07;8.15;;;7.05;;
39738;SDS011;25422;48.286;8.484;2023-06-10T05:34:33;8.73;;;7.32;;
39738;SDS011;25422;48.286;8.484;2023-06-10T05:36:59;9.13;;;6.97;;
39738;SDS011;25422;48.286;8.484;2023-06-10T05:39:25;7.82;;;6.40;;
39738;SDS011;25422;48.286;8.484;2023-06-10T05:41:50;10.10;;;6.35;;
39738;SDS011;25422;48.286;8.484;2023-06-10T05:44:15;8.07;;;5.97;;
39738;SDS011;25422;48.286;8.484;2023-06-10T05:46:41;9.60;;;5.53;;
39738;SDS011;25422;48.286;8.484;2023-06-10T05:49:07;6.10;;;5.50;;
39738;SDS011;25422;48.286;8.484;2023-06-10T05:51:32;7.00;;;6.28;;
39738;SDS011;25422;48.286;8.484;2023-06-10T05:53:57;9.30;;;5.85;;
39738;SDS011;25422;48.286;8.484;2023-06-10T05:56:23;5.30;;;4.80;;
39738;SDS011;25422;48.286;8.484;2023-06-10T05:58:48;5.80;;;5.22;;
39738;SDS011;25422;48.286;8.484;2023-06-10T06:01:14;7.18;;;5.13;;
39738;SDS011;25422;48.286;8.484;2023-06-10T06:03:40;5.30;;;4.80;;
39738;SDS011;25422;48.286;8.484;2023-06-10T06:06:05;8.45;;;5.78;;
39738;SDS011;25422;48.286;8.484;2023-06-10T06:08:31;5.80;;;5.20;;
39738;SDS011;25422;48.286;8.484;2023-06-10T06:10:57;5.38;;;4.88;;
39738;SDS011;25422;48.286;8.484;2023-06-10T06:13:23;5.68;;;5.18;;
39738;SDS011;25422;48.286;8.484;2023-06-10T06:15:48;6.40;;;5.13;;
39738;SDS011;25422;48.286;8.484;2023-06-10T06:18:14;5.55;;;4.97;;
39738;SDS011;25422;48.286;8.484;2023-06-10T06:20:40;6.22;;;4.82;;
39738;SDS011;25422;48.286;8.484;2023-06-10T06:23:06;5.78;;;5.18;;
39738;SDS011;25422;48.286;8.484;2023-06-10T06:25:35;8.38;;;5.63;;
39738;SDS011;25422;48.286;8.484;2023-06-10T06:28:00;5.60;;;5.10;;
39738;SDS011;25422;48.286;8.484;2023-06-10T06:30:26;6.45;;;4.95;;
39738;SDS011;25422;48.286;8.484;2023-06-10T06:32:52;5.63;;;5.00;;
39738;SDS011;25422;48.286;8.484;2023-06-10T06:35:18;5.90;;;5.30;;
39738;SDS011;25422;48.286;8.484;2023-06-10T06:37:44;8.75;;;5.30;;
39738;SDS011;25422;48.286;8.484;2023-06-10T06:40:18;5.55;;;5.00;;
39738;SDS011;25422;48.286;8.484;2023-06-10T06:42:45;6.45;;;5.07;;
39738;SDS011;25422;48.286;8.484;2023-06-10T06:45:16;8.43;;;5.00;;
39738;SDS011;25422;48.286;8.484;2023-06-10T06:47:41;8.38;;;5.18;;
39738;SDS011;25422;48.286;8.484;2023-06-10T06:50:09;6.10;;;4.85;;
39738;SDS011;25422;48.286;8.484;2023-06-10T06:52:35;6.47;;;4.70;;
39738;SDS011;25422;48.286;8.484;2023-06-10T06:55:01;6.30;;;4.55;;
39738;SDS011;25422;48.286;8.484;2023-06-10T06:57:27;6.03;;;4.68;;
39738;SDS011;25422;48.286;8.484;2023-06-10T06:59:53;7.88;;;4.90;;
39738;SDS011;25422;48.286;8.484;2023-06-10T07:02:19;5.05;;;4.55;;
39738;SDS011;25422;48.286;8.484;2023-06-10T07:04:46;7.40;;;5.03;;
39738;SDS011;25422;48.286;8.484;2023-06-10T07:07:15;6.80;;;4.90;;
39738;SDS011;25422;48.286;8.484;2023-06-10T07:09:41;6.45;;;4.78;;
39738;SDS011;25422;48.286;8.484;2023-06-10T07:12:06;5.13;;;4.65;;
39738;SDS011;25422;48.286;8.484;2023-06-10T07:14:33;5.50;;;4.47;;
39738;SDS011;25422;48.286;8.484;2023-06-10T07:17:01;7.25;;;4.65;;
39738;SDS011;25422;48.286;8.484;2023-06-10T07:19:28;5.80;;;5.05;;
39738;SDS011;25422;48.286;8.484;2023-06-10T07:21:55;6.13;;;4.13;;
39738;SDS011;25422;48.286;8.484;2023-06-10T07:24:22;5.55;;;4.82;;
39738;SDS011;25422;48.286;8.484;2023-06-10T07:26:50;5.65;;;4.22;;
39738;SDS011;25422;48.286;8.484;2023-06-10T07:29:17;5.82;;;4.72;;
39738;SDS011;25422;48.286;8.484;2023-06-10T07:31:43;5.65;;;4.07;;
39738;SDS011;25422;48.286;8.484;2023-06-10T07:34:09;5.20;;;4.60;;
39738;SDS011;25422;48.286;8.484;2023-06-10T07:36:34;6.00;;;4.28;;
39738;SDS011;25422;48.286;8.484;2023-06-10T07:39:00;5.80;;;4.40;;
39738;SDS011;25422;48.286;8.484;2023-06-10T07:41:25;7.10;;;4.55;;
39738;SDS011;25422;48.286;8.484;2023-06-10T07:43:52;5.20;;;4.47;;
39738;SDS011;25422;48.286;8.484;2023-06-10T07:46:22;6.65;;;4.85;;
39738;SDS011;25422;48.286;8.484;2023-06-10T07:51:14;6.55;;;4.80;;
39738;SDS011;25422;48.286;8.484;2023-06-10T07:53:40;5.43;;;4.93;;
39738;SDS011;25422;48.286;8.484;2023-06-10T07:56:06;5.95;;;4.40;;
39738;SDS011;25422;48.286;8.484;2023-06-10T07:58:31;6.60;;;4.50;;
39738;SDS011;25422;48.286;8.484;2023-06-10T08:00:57;5.03;;;4.25;;
39738;SDS011;25422;48.286;8.484;2023-06-10T08:03:22;5.05;;;4.57;;
39738;SDS011;25422;48.286;8.484;2023-06-10T08:05:48;6.72;;;5.22;;
39738;SDS011;25422;48.286;8.484;2023-06-10T08:08:16;5.82;;;4.80;;
39738;SDS011;25422;48.286;8.484;2023-06-10T08:10:44;8.75;;;5.05;;
39738;SDS011;25422;48.286;8.484;2023-06-10T08:13:10;7.60;;;4.70;;
39738;SDS011;25422;48.286;8.484;2023-06-10T08:15:36;6.10;;;5.22;;
39738;SDS011;25422;48.286;8.484;2023-06-10T08:18:01;5.40;;;4.90;;
39738;SDS011;25422;48.286;8.484;2023-06-10T08:20:27;5.20;;;4.65;;
39738;SDS011;25422;48.286;8.484;2023-06-10T08:22:53;5.47;;;4.97;;
39738;SDS011;25422;48.286;8.484;2023-06-10T08:25:18;7.55;;;5.15;;
39738;SDS011;25422;48.286;8.484;2023-06-10T08:27:46;5.25;;;4.80;;
39738;SDS011;25422;48.286;8.484;2023-06-10T08:30:12;7.00;;;5.30;;
39738;SDS011;25422;48.286;8.484;2023-06-10T08:32:38;6.68;;;4.85;;
39738;SDS011;25422;48.286;8.484;2023-06-10T08:35:03;5.00;;;4.53;;
39738;SDS011;25422;48.286;8.484;2023-06-10T08:37:29;7.18;;;5.18;;
39738;SDS011;25422;48.286;8.484;2023-06-10T08:39:55;6.40;;;5.28;;
39738;SDS011;25422;48.286;8.484;2023-06-10T08:44:58;6.20;;;4.75;;
39738;SDS011;25422;48.286;8.484;2023-06-10T08:47:27;5.60;;;5.05;;
39738;SDS011;25422;48.286;8.484;2023-06-10T08:49:56;5.90;;;5.30;;
39738;SDS011;25422;48.286;8.484;2023-06-10T08:52:26;5.57;;;5.07;;
39738;SDS011;25422;48.286;8.484;2023-06-10T08:55:00;5.50;;;4.80;;
39738;SDS011;25422;48.286;8.484;2023-06-10T08:57:29;7.45;;;5.18;;
39738;SDS011;25422;48.286;8.484;2023-06-10T08:59:56;5.65;;;5.00;;
39738;SDS011;25422;48.286;8.484;2023-06-10T09:02:23;5.25;;;4.75;;
39738;SDS011;25422;48.286;8.484;2023-06-10T09:04:50;5.20;;;4.70;;
39738;SDS011;25422;48.286;8.484;2023-06-10T09:07:16;8.32;;;4.90;;
39738;SDS011;25422;48.286;8.484;2023-06-10T09:09:45;5.28;;;4.55;;
39738;SDS011;25422;48.286;8.484;2023-06-10T09:12:14;5.30;;;4.72;;
39738;SDS011;25422;48.286;8.484;2023-06-10T09:14:43;5.55;;;4.97;;
39738;SDS011;25422;48.286;8.484;2023-06-10T09:17:08;5.30;;;4.80;;
39738;SDS011;25422;48.286;8.484;2023-06-10T09:19:36;5.82;;;4.82;;
39738;SDS011;25422;48.286;8.484;2023-06-10T09:22:04;5.53;;;4.68;;
39738;SDS011;25422;48.286;8.484;2023-06-10T09:24:31;5.32;;;4.80;;
39738;SDS011;25422;48.286;8.484;2023-06-10T09:27:07;6.82;;;5.32;;
39738;SDS011;25422;48.286;8.484;2023-06-10T09:30:07;5.30;;;4.13;;
39738;SDS011;25422;48.286;8.484;2023-06-10T09:32:31;6.10;;;4.93;;
39738;SDS011;25422;48.286;8.484;2023-06-10T09:34:57;5.55;;;4.63;;
39738;SDS011;25422;48.286;8.484;2023-06-10T09:37:23;6.90;;;4.43;;
39738;SDS011;25422;48.286;8.484;2023-06-10T09:40:03;4.78;;;4.35;;
39738;SDS011;25422;48.286;8.484;2023-06-10T09:42:32;4.78;;;3.90;;
39738;SDS011;25422;48.286;8.484;2023-06-10T09:44:59;8.85;;;4.72;;
39738;SDS011;25422;48.286;8.484;2023-06-10T09:47:25;5.22;;;4.28;;
39738;SDS011;25422;48.286;8.484;2023-06-10T09:49:50;9.73;;;4.68;;
39738;SDS011;25422;48.286;8.484;2023-06-10T09:52:22;6.27;;;4.33;;
39738;SDS011;25422;48.286;8.484;2023-06-10T09:54:49;5.70;;;4.40;;
39738;SDS011;25422;48.286;8.484;2023-06-10T09:57:16;10.20;;;4.50;;
39738;SDS011;25422;48.286;8.484;2023-06-10T09:59:42;4.82;;;4.43;;
39738;SDS011;25422;48.286;8.484;2023-06-10T10:02:13;5.88;;;4.43;;
39738;SDS011;25422;48.286;8.484;2023-06-10T10:04:39;5.50;;;4.40;;
39738;SDS011;25422;48.286;8.484;2023-06-10T10:07:04;5.40;;;4.90;;
39738;SDS011;25422;48.286;8.484;2023-06-10T10:09:30;17.73;;;5.07;;
39738;SDS011;25422;48.286;8.484;2023-06-10T10:11:55;8.13;;;4.28;;
39738;SDS011;25422;48.286;8.484;2023-06-10T10:14:22;5.82;;;4.45;;
39738;SDS011;25422;48.286;8.484;2023-06-10T10:16:50;4.63;;;4.22;;
39738;SDS011;25422;48.286;8.484;2023-06-10T10:19:20;5.15;;;4.45;;
39738;SDS011;25422;48.286;8.484;2023-06-10T10:21:53;5.93;;;4.47;;
39738;SDS011;25422;48.286;8.484;2023-06-10T10:24:23;5.20;;;4.50;;
39738;SDS011;25422;48.286;8.484;2023-06-10T10:26:56;6.50;;;4.82;;
39738;SDS011;25422;48.286;8.484;2023-06-10T10:29:28;7.57;;;4.57;;
39738;SDS011;25422;48.286;8.484;2023-06-10T10:31:56;5.25;;;4.65;;
39738;SDS011;25422;48.286;8.484;2023-06-10T10:37:12;5.10;;;4.60;;
39738;SDS011;25422;48.286;8.484;2023-06-10T10:39:37;5.47;;;4.50;;
39738;SDS011;25422;48.286;8.484;2023-06-10T10:42:04;5.07;;;4.57;;
39738;SDS011;25422;48.286;8.484;2023-06-10T10:44:30;5.07;;;4.43;;
39738;SDS011;25422;48.286;8.484;2023-06-10T10:46:56;10.82;;;4.82;;
39738;SDS011;25422;48.286;8.484;2023-06-10T10:49:28;7.93;;;4.55;;
39738;SDS011;25422;48.286;8.484;2023-06-10T10:51:59;4.50;;;4.15;;
39738;SDS011;25422;48.286;8.484;2023-06-10T10:54:35;5.95;;;4.40;;
39738;SDS011;25422;48.286;8.484;2023-06-10T10:59:44;4.53;;;4.05;;
39738;SDS011;25422;48.286;8.484;2023-06-10T11:02:10;4.60;;;4.15;;
39738;SDS011;25422;48.286;8.484;2023-06-10T11:04:44;4.30;;;3.90;;
39738;SDS011;25422;48.286;8.484;2023-06-10T11:07:11;4.78;;;3.80;;
39738;SDS011;25422;48.286;8.484;2023-06-10T11:09:40;4.20;;;3.83;;
39738;SDS011;25422;48.286;8.484;2023-06-10T11:12:23;4.20;;;3.80;;
39738;SDS011;25422;48.286;8.484;2023-06-10T11:14:53;4.57;;;3.45;;
39738;SDS011;25422;48.286;8.484;2023-06-10T11:17:24;4.25;;;3.85;;
39738;SDS011;25422;48.286;8.484;2023-06-10T11:19:49;3.55;;;3.25;;
39738;SDS011;25422;48.286;8.484;2023-06-10T11:22:17;5.53;;;3.50;;
39738;SDS011;25422;48.286;8.484;2023-06-10T11:24:47;6.30;;;3.50;;
39738;SDS011;25422;48.286;8.484;2023-06-10T11:27:22;3.88;;;3.38;;
39738;SDS011;25422;48.286;8.484;2023-06-10T11:32:31;9.63;;;3.10;;
39738;SDS011;25422;48.286;8.484;2023-06-10T11:34:58;4.97;;;2.90;;
39738;SDS011;25422;48.286;8.484;2023-06-10T11:37:24;5.10;;;2.95;;
39738;SDS011;25422;48.286;8.484;2023-06-10T11:39:56;3.17;;;2.88;;
39738;SDS011;25422;48.286;8.484;2023-06-10T11:42:22;3.50;;;3.20;;
39738;SDS011;25422;48.286;8.484;2023-06-10T11:44:48;4.32;;;3.10;;
39738;SDS011;25422;48.286;8.484;2023-06-10T11:47:15;4.60;;;3.50;;
39738;SDS011;25422;48.286;8.484;2023-06-10T11:49:40;4.20;;;3.30;;
39738;SDS011;25422;48.286;8.484;2023-06-10T11:52:06;3.55;;;3.25;;
39738;SDS011;25422;48.286;8.484;2023-06-10T11:54:31;7.18;;;3.67;;
39738;SDS011;25422;48.286;8.484;2023-06-10T11:56:57;6.63;;;2.78;;
39738;SDS011;25422;48.286;8.484;2023-06-10T11:59:28;5.68;;;3.45;;
39738;SDS011;25422;48.286;8.484;2023-06-10T12:01:54;3.40;;;3.10;;
39738;SDS011;25422;48.286;8.484;2023-06-10T12:04:20;4.72;;;3.25;;
39738;SDS011;25422;48.286;8.484;2023-06-10T12:06:50;6.22;;;4.20;;
39738;SDS011;25422;48.286;8.484;2023-06-10T12:11:45;10.75;;;4.57;;
39738;SDS011;25422;48.286;8.484;2023-06-10T12:14:14;2.88;;;2.63;;
39738;SDS011;25422;48.286;8.484;2023-06-10T12:16:39;5.65;;;3.03;;
39738;SDS011;25422;48.286;8.484;2023-06-10T12:19:05;3.17;;;2.97;;
39738;SDS011;25422;48.286;8.484;2023-06-10T12:21:32;4.00;;;3.15;;
39738;SDS011;25422;48.286;8.484;2023-06-10T12:24:06;3.40;;;3.10;;
39738;SDS011;25422;48.286;8.484;2023-06-10T12:26:43;3.38;;;2.72;;
39738;SDS011;25422;48.286;8.484;2023-06-10T12:31:52;2.80;;;2.50;;
39738;SDS011;25422;48.286;8.484;2023-06-10T12:34:29;2.78;;;2.42;;
39738;SDS011;25422;48.286;8.484;2023-06-10T12:37:03;2.72;;;2.53;;
39738;SDS011;25422;48.286;8.484;2023-06-10T12:39:30;3.45;;;2.70;;
39738;SDS011;25422;48.286;8.484;2023-06-10T12:41:56;3.47;;;2.70;;
39738;SDS011;25422;48.286;8.484;2023-06-10T12:44:29;3.13;;;2.80;;
39738;SDS011;25422;48.286;8.484;2023-06-10T12:46:58;2.90;;;2.42;;
39738;SDS011;25422;48.286;8.484;2023-06-10T12:49:24;3.80;;;2.50;;
39738;SDS011;25422;48.286;8.484;2023-06-10T12:51:51;4.18;;;2.80;;
39738;SDS011;25422;48.286;8.484;2023-06-10T12:54:17;3.70;;;2.58;;
39738;SDS011;25422;48.286;8.484;2023-06-10T12:56:42;5.32;;;2.40;;
39738;SDS011;25422;48.286;8.484;2023-06-10T12:59:08;3.85;;;2.45;;
39738;SDS011;25422;48.286;8.484;2023-06-10T13:01:33;3.17;;;2.50;;
39738;SDS011;25422;48.286;8.484;2023-06-10T13:03:59;2.55;;;2.35;;
39738;SDS011;25422;48.286;8.484;2023-06-10T13:06:25;3.22;;;2.47;;
39738;SDS011;25422;48.286;8.484;2023-06-10T13:08:50;3.97;;;3.08;;
39738;SDS011;25422;48.286;8.484;2023-06-10T13:11:16;4.07;;;2.97;;
39738;SDS011;25422;48.286;8.484;2023-06-10T13:13:41;4.57;;;2.35;;
39738;SDS011;25422;48.286;8.484;2023-06-10T13:16:07;2.95;;;2.65;;
39738;SDS011;25422;48.286;8.484;2023-06-10T13:18:33;23.83;;;7.25;;
39738;SDS011;25422;48.286;8.484;2023-06-10T13:21:05;3.08;;;2.72;;
39738;SDS011;25422;48.286;8.484;2023-06-10T13:23:31;2.67;;;2.47;;
39738;SDS011;25422;48.286;8.484;2023-06-10T13:25:57;2.67;;;2.47;;
39738;SDS011;25422;48.286;8.484;2023-06-10T13:28:22;2.83;;;2.60;;
39738;SDS011;25422;48.286;8.484;2023-06-10T13:30:48;2.90;;;2.70;;
39738;SDS011;25422;48.286;8.484;2023-06-10T13:33:13;2.80;;;2.60;;
39738;SDS011;25422;48.286;8.484;2023-06-10T13:35:39;3.00;;;2.70;;
39738;SDS011;25422;48.286;8.484;2023-06-10T13:38:04;2.60;;;2.40;;
39738;SDS011;25422;48.286;8.484;2023-06-10T13:40:29;6.03;;;3.00;;
39738;SDS011;25422;48.286;8.484;2023-06-10T13:42:55;2.72;;;2.53;;
39738;SDS011;25422;48.286;8.484;2023-06-10T13:45:20;3.13;;;2.80;;
39738;SDS011;25422;48.286;8.484;2023-06-10T13:47:46;4.05;;;2.90;;
39738;SDS011;25422;48.286;8.484;2023-06-10T13:50:11;2.92;;;2.72;;
39738;SDS011;25422;48.286;8.484;2023-06-10T13:52:38;2.80;;;2.60;;
39738;SDS011;25422;48.286;8.484;2023-06-10T13:55:03;4.45;;;3.15;;
39738;SDS011;25422;48.286;8.484;2023-06-10T13:57:29;2.75;;;2.55;;
39738;SDS011;25422;48.286;8.484;2023-06-10T13:59:55;2.95;;;2.55;;
39738;SDS011;25422;48.286;8.484;2023-06-10T14:02:21;3.60;;;2.53;;
39738;SDS011;25422;48.286;8.484;2023-06-10T14:04:47;3.10;;;2.80;;
39738;SDS011;25422;48.286;8.484;2023-06-10T14:07:12;4.78;;;3.63;;
39738;SDS011;25422;48.286;8.484;2023-06-10T14:09:38;4.05;;;2.70;;
39738;SDS011;25422;48.286;8.484;2023-06-10T14:12:03;3.90;;;3.05;;
39738;SDS011;25422;48.286;8.484;2023-06-10T14:14:30;7.47;;;3.40;;
39738;SDS011;25422;48.286;8.484;2023-06-10T14:16:56;5.90;;;3.08;;
39738;SDS011;25422;48.286;8.484;2023-06-10T14:19:21;5.10;;;3.30;;
39738;SDS011;25422;48.286;8.484;2023-06-10T14:21:47;22.13;;;3.70;;
39738;SDS011;25422;48.286;8.484;2023-06-10T14:24:14;5.22;;;3.20;;
39738;SDS011;25422;48.286;8.484;2023-06-10T14:26:39;31.15;;;4.07;;
39738;SDS011;25422;48.286;8.484;2023-06-10T14:29:05;15.38;;;3.75;;
39738;SDS011;25422;48.286;8.484;2023-06-10T14:31:32;5.82;;;3.60;;
39738;SDS011;25422;48.286;8.484;2023-06-10T14:33:57;5.13;;;3.15;;
39738;SDS011;25422;48.286;8.484;2023-06-10T14:36:23;3.55;;;3.20;;
39738;SDS011;25422;48.286;8.484;2023-06-10T14:38:48;3.75;;;3.35;;
39738;SDS011;25422;48.286;8.484;2023-06-10T14:41:14;7.22;;;3.35;;
39738;SDS011;25422;48.286;8.484;2023-06-10T14:43:40;3.25;;;2.92;;
39738;SDS011;25422;48.286;8.484;2023-06-10T14:46:05;2.90;;;2.70;;
39738;SDS011;25422;48.286;8.484;2023-06-10T14:48:31;3.97;;;2.75;;
39738;SDS011;25422;48.286;8.484;2023-06-10T14:50:56;4.40;;;3.10;;
39738;SDS011;25422;48.286;8.484;2023-06-10T14:53:21;4.35;;;3.05;;
39738;SDS011;25422;48.286;8.484;2023-06-10T14:55:47;4.43;;;3.17;;
39738;SDS011;25422;48.286;8.484;2023-06-10T14:58:12;4.22;;;3.05;;
39738;SDS011;25422;48.286;8.484;2023-06-10T15:00:38;3.25;;;2.92;;
39738;SDS011;25422;48.286;8.484;2023-06-10T15:03:03;4.15;;;2.92;;